sensor_id;sensor_type;location;lat;lon;timestamp;P1;durP1;ratioP1;P2;durP2;ratioP2
12145;SDS011;6136;47.032;15.398;2022-12-18T00:00:05;29.27;;;16.33;;
12145;SDS011;6136;47.032;15.398;2022-12-18T00:02:39;27.23;;;14.93;;
12145;SDS011;6136;47.032;15.398;2022-12-18T00:05:07;25.93;;;15.23;;
12145;SDS011;6136;47.032;15.398;2022-12-18T00:07:35;27.43;;;15.50;;
12145;SDS011;6136;47.032;15.398;2022-12-18T00:10:05;33.63;;;16.67;;
12145;SDS011;6136;47.032;15.398;2022-12-18T00:12:33;31.87;;;16.40;;
12145;SDS011;6136;47.032;15.398;2022-12-18T00:15:02;31.20;;;15.47;;
12145;SDS011;6136;47.032;15.398;2022-12-18T00:17:32;33.67;;;16.73;;
12145;SDS011;6136;47.032;15.398;2022-12-18T00:20:00;33.73;;;17.00;;
12145;SDS011;6136;47.032;15.398;2022-12-18T00:22:28;39.57;;;17.53;;
12145;SDS011;6136;47.032;15.398;2022-12-18T00:24:57;31.57;;;17.30;;
12145;SDS011;6136;47.032;15.398;2022-12-18T00:27:25;30.73;;;16.33;;
12145;SDS011;6136;47.032;15.398;2022-12-18T00:29:53;36.47;;;16.03;;
12145;SDS011;6136;47.032;15.398;2022-12-18T00:32:21;27.50;;;15.10;;
12145;SDS011;6136;47.032;15.398;2022-12-18T00:34:51;35.40;;;16.00;;
12145;SDS011;6136;47.032;15.398;2022-12-18T00:37:19;33.77;;;16.60;;
12145;SDS011;6136;47.032;15.398;2022-12-18T00:39:49;28.67;;;14.73;;
12145;SDS011;6136;47.032;15.398;2022-12-18T00:42:18;32.67;;;17.23;;
12145;SDS011;6136;47.032;15.398;2022-12-18T00:45:04;30.17;;;15.93;;
12145;SDS011;6136;47.032;15.398;2022-12-18T00:47:38;30.10;;;16.63;;
12145;SDS011;6136;47.032;15.398;2022-12-18T00:50:09;31.67;;;17.00;;
12145;SDS011;6136;47.032;15.398;2022-12-18T00:52:37;28.83;;;15.57;;
12145;SDS011;6136;47.032;15.398;2022-12-18T00:55:07;27.87;;;14.37;;
12145;SDS011;6136;47.032;15.398;2022-12-18T00:57:36;27.67;;;16.90;;
12145;SDS011;6136;47.032;15.398;2022-12-18T01:00:07;22.40;;;13.03;;
12145;SDS011;6136;47.032;15.398;2022-12-18T01:02:37;33.33;;;17.83;;
12145;SDS011;6136;47.032;15.398;2022-12-18T01:05:06;32.27;;;16.27;;
12145;SDS011;6136;47.032;15.398;2022-12-18T01:07:37;29.23;;;15.57;;
12145;SDS011;6136;47.032;15.398;2022-12-18T01:10:06;33.63;;;17.10;;
12145;SDS011;6136;47.032;15.398;2022-12-18T01:12:37;28.63;;;14.80;;
12145;SDS011;6136;47.032;15.398;2022-12-18T01:15:06;29.57;;;15.83;;
12145;SDS011;6136;47.032;15.398;2022-12-18T01:17:36;32.07;;;14.53;;
12145;SDS011;6136;47.032;15.398;2022-12-18T01:20:04;26.87;;;13.80;;
12145;SDS011;6136;47.032;15.398;2022-12-18T01:22:35;28.17;;;15.93;;
12145;SDS011;6136;47.032;15.398;2022-12-18T01:25:03;31.50;;;15.83;;
12145;SDS011;6136;47.032;15.398;2022-12-18T01:27:33;30.30;;;14.40;;
12145;SDS011;6136;47.032;15.398;2022-12-18T01:30:03;27.63;;;15.70;;
12145;SDS011;6136;47.032;15.398;2022-12-18T01:32:32;28.37;;;13.50;;
12145;SDS011;6136;47.032;15.398;2022-12-18T01:35:01;23.33;;;14.07;;
12145;SDS011;6136;47.032;15.398;2022-12-18T01:37:29;25.17;;;14.13;;
12145;SDS011;6136;47.032;15.398;2022-12-18T01:39:59;24.20;;;13.83;;
12145;SDS011;6136;47.032;15.398;2022-12-18T01:42:27;24.13;;;13.90;;
12145;SDS011;6136;47.032;15.398;2022-12-18T01:44:59;27.47;;;14.70;;
12145;SDS011;6136;47.032;15.398;2022-12-18T01:47:32;27.93;;;15.10;;
12145;SDS011;6136;47.032;15.398;2022-12-18T01:50:06;26.50;;;14.57;;
12145;SDS011;6136;47.032;15.398;2022-12-18T01:52:36;25.70;;;14.63;;
12145;SDS011;6136;47.032;15.398;2022-12-18T01:55:07;26.13;;;13.67;;
12145;SDS011;6136;47.032;15.398;2022-12-18T01:57:36;24.80;;;14.00;;
12145;SDS011;6136;47.032;15.398;2022-12-18T02:00:07;25.90;;;14.67;;
12145;SDS011;6136;47.032;15.398;2022-12-18T02:02:40;23.53;;;13.37;;
12145;SDS011;6136;47.032;15.398;2022-12-18T02:05:12;27.37;;;15.27;;
12145;SDS011;6136;47.032;15.398;2022-12-18T02:07:48;25.40;;;15.00;;
12145;SDS011;6136;47.032;15.398;2022-12-18T02:10:36;27.53;;;14.83;;
12145;SDS011;6136;47.032;15.398;2022-12-18T02:13:13;26.70;;;15.80;;
12145;SDS011;6136;47.032;15.398;2022-12-18T02:15:48;34.70;;;17.50;;
12145;SDS011;6136;47.032;15.398;2022-12-18T02:18:24;30.67;;;15.83;;
12145;SDS011;6136;47.032;15.398;2022-12-18T02:20:57;31.07;;;13.90;;
12145;SDS011;6136;47.032;15.398;2022-12-18T02:23:37;26.57;;;15.17;;
12145;SDS011;6136;47.032;15.398;2022-12-18T02:26:17;40.50;;;16.37;;
12145;SDS011;6136;47.032;15.398;2022-12-18T02:28:51;28.40;;;15.70;;
12145;SDS011;6136;47.032;15.398;2022-12-18T02:31:27;27.37;;;14.30;;
12145;SDS011;6136;47.032;15.398;2022-12-18T02:34:00;36.07;;;15.77;;
12145;SDS011;6136;47.032;15.398;2022-12-18T02:36:36;31.23;;;15.37;;
12145;SDS011;6136;47.032;15.398;2022-12-18T02:39:10;26.37;;;14.97;;
12145;SDS011;6136;47.032;15.398;2022-12-18T02:41:50;26.90;;;15.73;;
12145;SDS011;6136;47.032;15.398;2022-12-18T02:44:20;26.90;;;14.83;;
12145;SDS011;6136;47.032;15.398;2022-12-18T02:46:49;23.80;;;13.27;;
12145;SDS011;6136;47.032;15.398;2022-12-18T02:49:22;28.03;;;14.43;;
12145;SDS011;6136;47.032;15.398;2022-12-18T02:52:01;27.30;;;13.77;;
12145;SDS011;6136;47.032;15.398;2022-12-18T02:54:38;31.53;;;15.50;;
12145;SDS011;6136;47.032;15.398;2022-12-18T02:57:20;27.90;;;15.47;;
12145;SDS011;6136;47.032;15.398;2022-12-18T03:00:01;23.07;;;14.27;;
12145;SDS011;6136;47.032;15.398;2022-12-18T03:02:37;24.37;;;14.40;;
12145;SDS011;6136;47.032;15.398;2022-12-18T03:05:13;21.40;;;13.97;;
12145;SDS011;6136;47.032;15.398;2022-12-18T03:07:46;22.27;;;14.23;;
12145;SDS011;6136;47.032;15.398;2022-12-18T03:10:20;26.83;;;14.70;;
12145;SDS011;6136;47.032;15.398;2022-12-18T03:12:56;23.43;;;14.20;;
12145;SDS011;6136;47.032;15.398;2022-12-18T03:15:31;29.50;;;14.60;;
12145;SDS011;6136;47.032;15.398;2022-12-18T03:18:10;22.73;;;13.80;;
12145;SDS011;6136;47.032;15.398;2022-12-18T03:20:41;24.23;;;14.90;;
12145;SDS011;6136;47.032;15.398;2022-12-18T03:23:17;24.57;;;14.23;;
12145;SDS011;6136;47.032;15.398;2022-12-18T03:25:52;24.97;;;13.90;;
12145;SDS011;6136;47.032;15.398;2022-12-18T03:28:38;24.23;;;13.57;;
12145;SDS011;6136;47.032;15.398;2022-12-18T03:31:10;22.97;;;14.20;;
12145;SDS011;6136;47.032;15.398;2022-12-18T03:33:41;23.40;;;12.97;;
12145;SDS011;6136;47.032;15.398;2022-12-18T03:36:14;19.43;;;12.23;;
12145;SDS011;6136;47.032;15.398;2022-12-18T03:38:42;21.63;;;13.93;;
12145;SDS011;6136;47.032;15.398;2022-12-18T03:41:13;22.87;;;12.73;;
12145;SDS011;6136;47.032;15.398;2022-12-18T03:44:13;21.57;;;12.47;;
12145;SDS011;6136;47.032;15.398;2022-12-18T03:46:50;23.27;;;12.63;;
12145;SDS011;6136;47.032;15.398;2022-12-18T03:49:27;20.60;;;12.37;;
12145;SDS011;6136;47.032;15.398;2022-12-18T03:52:04;20.67;;;11.47;;
12145;SDS011;6136;47.032;15.398;2022-12-18T03:54:38;16.47;;;11.27;;
12145;SDS011;6136;47.032;15.398;2022-12-18T03:57:13;16.93;;;11.17;;
12145;SDS011;6136;47.032;15.398;2022-12-18T03:59:49;19.17;;;10.30;;
12145;SDS011;6136;47.032;15.398;2022-12-18T04:02:26;16.77;;;11.40;;
12145;SDS011;6136;47.032;15.398;2022-12-18T04:04:58;17.33;;;11.47;;
12145;SDS011;6136;47.032;15.398;2022-12-18T04:07:31;17.90;;;11.50;;
12145;SDS011;6136;47.032;15.398;2022-12-18T04:10:01;19.83;;;11.03;;
12145;SDS011;6136;47.032;15.398;2022-12-18T04:12:31;15.67;;;9.93;;
12145;SDS011;6136;47.032;15.398;2022-12-18T04:15:01;13.73;;;10.07;;
12145;SDS011;6136;47.032;15.398;2022-12-18T04:17:29;17.40;;;10.33;;
12145;SDS011;6136;47.032;15.398;2022-12-18T04:19:57;17.20;;;11.30;;
12145;SDS011;6136;47.032;15.398;2022-12-18T04:22:25;17.40;;;11.03;;
12145;SDS011;6136;47.032;15.398;2022-12-18T04:24:58;15.60;;;10.07;;
12145;SDS011;6136;47.032;15.398;2022-12-18T04:27:34;17.03;;;11.17;;
12145;SDS011;6136;47.032;15.398;2022-12-18T04:30:06;18.63;;;11.97;;
12145;SDS011;6136;47.032;15.398;2022-12-18T04:32:34;16.73;;;11.33;;
12145;SDS011;6136;47.032;15.398;2022-12-18T04:35:03;21.33;;;11.73;;
12145;SDS011;6136;47.032;15.398;2022-12-18T04:37:38;13.53;;;10.03;;
12145;SDS011;6136;47.032;15.398;2022-12-18T04:40:07;14.43;;;10.10;;
12145;SDS011;6136;47.032;15.398;2022-12-18T04:42:40;15.13;;;10.17;;
12145;SDS011;6136;47.032;15.398;2022-12-18T04:45:10;17.83;;;10.90;;
12145;SDS011;6136;47.032;15.398;2022-12-18T04:47:38;16.47;;;10.60;;
12145;SDS011;6136;47.032;15.398;2022-12-18T04:50:07;15.20;;;10.17;;
12145;SDS011;6136;47.032;15.398;2022-12-18T04:52:35;18.63;;;11.83;;
12145;SDS011;6136;47.032;15.398;2022-12-18T04:55:04;17.10;;;11.23;;
12145;SDS011;6136;47.032;15.398;2022-12-18T04:57:32;19.43;;;11.47;;
12145;SDS011;6136;47.032;15.398;2022-12-18T05:00:01;19.83;;;11.97;;
12145;SDS011;6136;47.032;15.398;2022-12-18T05:02:30;26.00;;;13.03;;
12145;SDS011;6136;47.032;15.398;2022-12-18T05:04:58;19.70;;;13.07;;
12145;SDS011;6136;47.032;15.398;2022-12-18T05:07:26;19.47;;;12.10;;
12145;SDS011;6136;47.032;15.398;2022-12-18T05:09:55;17.23;;;12.30;;
12145;SDS011;6136;47.032;15.398;2022-12-18T05:12:23;19.97;;;12.63;;
12145;SDS011;6136;47.032;15.398;2022-12-18T05:14:51;19.30;;;11.50;;
12145;SDS011;6136;47.032;15.398;2022-12-18T05:17:19;21.17;;;12.80;;
12145;SDS011;6136;47.032;15.398;2022-12-18T05:19:49;16.60;;;11.40;;
12145;SDS011;6136;47.032;15.398;2022-12-18T05:22:17;19.77;;;12.63;;
12145;SDS011;6136;47.032;15.398;2022-12-18T05:24:45;16.83;;;11.30;;
12145;SDS011;6136;47.032;15.398;2022-12-18T05:27:13;15.97;;;10.90;;
12145;SDS011;6136;47.032;15.398;2022-12-18T05:29:41;14.83;;;10.77;;
12145;SDS011;6136;47.032;15.398;2022-12-18T05:32:09;16.60;;;10.93;;
12145;SDS011;6136;47.032;15.398;2022-12-18T05:34:37;19.03;;;11.00;;
12145;SDS011;6136;47.032;15.398;2022-12-18T05:37:07;17.07;;;10.40;;
12145;SDS011;6136;47.032;15.398;2022-12-18T05:39:35;17.50;;;12.20;;
12145;SDS011;6136;47.032;15.398;2022-12-18T05:42:03;17.53;;;10.53;;
12145;SDS011;6136;47.032;15.398;2022-12-18T05:44:31;16.60;;;11.10;;
12145;SDS011;6136;47.032;15.398;2022-12-18T05:47:00;16.83;;;11.70;;
12145;SDS011;6136;47.032;15.398;2022-12-18T05:49:28;17.00;;;10.27;;
12145;SDS011;6136;47.032;15.398;2022-12-18T05:51:56;22.07;;;12.50;;
12145;SDS011;6136;47.032;15.398;2022-12-18T05:54:27;17.43;;;10.87;;
12145;SDS011;6136;47.032;15.398;2022-12-18T05:56:56;17.87;;;11.33;;
12145;SDS011;6136;47.032;15.398;2022-12-18T05:59:24;16.93;;;10.63;;
12145;SDS011;6136;47.032;15.398;2022-12-18T06:01:52;15.90;;;10.57;;
12145;SDS011;6136;47.032;15.398;2022-12-18T06:04:20;12.93;;;9.10;;
12145;SDS011;6136;47.032;15.398;2022-12-18T06:06:48;15.20;;;9.50;;
12145;SDS011;6136;47.032;15.398;2022-12-18T06:09:16;17.60;;;9.80;;
12145;SDS011;6136;47.032;15.398;2022-12-18T06:11:46;13.07;;;10.77;;
12145;SDS011;6136;47.032;15.398;2022-12-18T06:14:14;15.97;;;10.27;;
12145;SDS011;6136;47.032;15.398;2022-12-18T06:16:43;16.53;;;10.53;;
12145;SDS011;6136;47.032;15.398;2022-12-18T06:19:13;16.07;;;11.00;;
12145;SDS011;6136;47.032;15.398;2022-12-18T06:21:43;18.97;;;12.37;;
12145;SDS011;6136;47.032;15.398;2022-12-18T06:24:11;17.63;;;12.63;;
12145;SDS011;6136;47.032;15.398;2022-12-18T06:26:39;19.40;;;13.30;;
12145;SDS011;6136;47.032;15.398;2022-12-18T06:29:09;16.60;;;10.77;;
12145;SDS011;6136;47.032;15.398;2022-12-18T06:31:37;14.97;;;11.10;;
12145;SDS011;6136;47.032;15.398;2022-12-18T06:34:05;16.03;;;10.90;;
12145;SDS011;6136;47.032;15.398;2022-12-18T06:36:33;17.20;;;10.60;;
12145;SDS011;6136;47.032;15.398;2022-12-18T06:39:02;14.97;;;11.40;;
12145;SDS011;6136;47.032;15.398;2022-12-18T06:41:31;17.83;;;10.83;;
12145;SDS011;6136;47.032;15.398;2022-12-18T06:43:59;15.10;;;11.30;;
12145;SDS011;6136;47.032;15.398;2022-12-18T06:46:29;16.13;;;12.23;;
12145;SDS011;6136;47.032;15.398;2022-12-18T06:48:58;16.50;;;11.10;;
12145;SDS011;6136;47.032;15.398;2022-12-18T06:51:29;15.17;;;11.03;;
12145;SDS011;6136;47.032;15.398;2022-12-18T06:53:57;24.77;;;13.10;;
12145;SDS011;6136;47.032;15.398;2022-12-18T06:56:25;17.17;;;13.23;;
12145;SDS011;6136;47.032;15.398;2022-12-18T06:58:54;17.60;;;13.03;;
12145;SDS011;6136;47.032;15.398;2022-12-18T07:01:22;19.50;;;12.77;;
12145;SDS011;6136;47.032;15.398;2022-12-18T07:03:53;19.30;;;13.27;;
12145;SDS011;6136;47.032;15.398;2022-12-18T07:06:22;17.47;;;14.00;;
12145;SDS011;6136;47.032;15.398;2022-12-18T07:08:51;17.50;;;12.77;;
12145;SDS011;6136;47.032;15.398;2022-12-18T07:11:21;16.97;;;10.87;;
12145;SDS011;6136;47.032;15.398;2022-12-18T07:13:49;15.03;;;10.73;;
12145;SDS011;6136;47.032;15.398;2022-12-18T07:16:18;16.63;;;11.17;;
12145;SDS011;6136;47.032;15.398;2022-12-18T07:18:52;15.80;;;11.53;;
12145;SDS011;6136;47.032;15.398;2022-12-18T07:21:22;17.70;;;11.37;;
12145;SDS011;6136;47.032;15.398;2022-12-18T07:23:52;16.10;;;11.30;;
12145;SDS011;6136;47.032;15.398;2022-12-18T07:26:20;15.90;;;11.07;;
12145;SDS011;6136;47.032;15.398;2022-12-18T07:28:49;19.17;;;11.07;;
12145;SDS011;6136;47.032;15.398;2022-12-18T07:31:19;21.20;;;13.20;;
12145;SDS011;6136;47.032;15.398;2022-12-18T07:33:49;24.73;;;16.47;;
12145;SDS011;6136;47.032;15.398;2022-12-18T07:36:19;19.03;;;13.77;;
12145;SDS011;6136;47.032;15.398;2022-12-18T07:38:47;22.80;;;14.33;;
12145;SDS011;6136;47.032;15.398;2022-12-18T07:41:16;18.40;;;12.80;;
12145;SDS011;6136;47.032;15.398;2022-12-18T07:43:45;19.27;;;13.87;;
12145;SDS011;6136;47.032;15.398;2022-12-18T07:46:14;24.33;;;12.47;;
12145;SDS011;6136;47.032;15.398;2022-12-18T07:48:43;17.90;;;10.83;;
12145;SDS011;6136;47.032;15.398;2022-12-18T07:51:15;18.43;;;11.73;;
12145;SDS011;6136;47.032;15.398;2022-12-18T07:53:46;18.00;;;11.87;;
12145;SDS011;6136;47.032;15.398;2022-12-18T07:56:18;19.70;;;12.27;;
12145;SDS011;6136;47.032;15.398;2022-12-18T07:58:56;14.83;;;10.90;;
12145;SDS011;6136;47.032;15.398;2022-12-18T08:01:25;17.80;;;10.97;;
12145;SDS011;6136;47.032;15.398;2022-12-18T08:03:53;14.03;;;10.87;;
12145;SDS011;6136;47.032;15.398;2022-12-18T08:06:22;17.47;;;9.90;;
12145;SDS011;6136;47.032;15.398;2022-12-18T08:08:52;17.40;;;10.13;;
12145;SDS011;6136;47.032;15.398;2022-12-18T08:11:21;13.13;;;8.50;;
12145;SDS011;6136;47.032;15.398;2022-12-18T08:13:50;13.17;;;8.70;;
12145;SDS011;6136;47.032;15.398;2022-12-18T08:16:19;13.90;;;9.33;;
12145;SDS011;6136;47.032;15.398;2022-12-18T08:18:48;15.17;;;9.93;;
12145;SDS011;6136;47.032;15.398;2022-12-18T08:21:18;15.77;;;9.60;;
12145;SDS011;6136;47.032;15.398;2022-12-18T08:23:49;19.10;;;10.43;;
12145;SDS011;6136;47.032;15.398;2022-12-18T08:26:20;13.40;;;8.83;;
12145;SDS011;6136;47.032;15.398;2022-12-18T08:28:49;16.90;;;10.37;;
12145;SDS011;6136;47.032;15.398;2022-12-18T08:31:18;24.73;;;12.17;;
12145;SDS011;6136;47.032;15.398;2022-12-18T08:33:49;16.90;;;10.47;;
12145;SDS011;6136;47.032;15.398;2022-12-18T08:36:18;15.70;;;9.93;;
12145;SDS011;6136;47.032;15.398;2022-12-18T08:38:46;22.17;;;13.20;;
12145;SDS011;6136;47.032;15.398;2022-12-18T08:41:15;20.83;;;12.33;;
12145;SDS011;6136;47.032;15.398;2022-12-18T08:43:45;20.73;;;12.13;;
12145;SDS011;6136;47.032;15.398;2022-12-18T08:46:32;23.27;;;11.20;;
12145;SDS011;6136;47.032;15.398;2022-12-18T08:49:02;21.57;;;11.93;;
12145;SDS011;6136;47.032;15.398;2022-12-18T08:51:31;21.97;;;12.83;;
12145;SDS011;6136;47.032;15.398;2022-12-18T08:54:00;21.00;;;11.80;;
12145;SDS011;6136;47.032;15.398;2022-12-18T08:56:30;19.53;;;11.70;;
12145;SDS011;6136;47.032;15.398;2022-12-18T08:59:00;15.13;;;9.30;;
12145;SDS011;6136;47.032;15.398;2022-12-18T09:01:28;16.93;;;9.90;;
12145;SDS011;6136;47.032;15.398;2022-12-18T09:03:57;18.23;;;9.37;;
12145;SDS011;6136;47.032;15.398;2022-12-18T09:06:25;17.47;;;10.17;;
12145;SDS011;6136;47.032;15.398;2022-12-18T09:08:54;18.27;;;9.37;;
12145;SDS011;6136;47.032;15.398;2022-12-18T09:11:22;17.73;;;9.63;;
12145;SDS011;6136;47.032;15.398;2022-12-18T09:13:53;17.33;;;10.63;;
12145;SDS011;6136;47.032;15.398;2022-12-18T09:16:23;18.00;;;10.90;;
12145;SDS011;6136;47.032;15.398;2022-12-18T09:18:57;20.63;;;10.03;;
12145;SDS011;6136;47.032;15.398;2022-12-18T09:21:27;20.47;;;11.07;;
12145;SDS011;6136;47.032;15.398;2022-12-18T09:23:56;19.80;;;11.57;;
12145;SDS011;6136;47.032;15.398;2022-12-18T09:26:24;20.47;;;10.63;;
12145;SDS011;6136;47.032;15.398;2022-12-18T09:28:53;17.47;;;10.43;;
12145;SDS011;6136;47.032;15.398;2022-12-18T09:31:23;18.40;;;10.80;;
12145;SDS011;6136;47.032;15.398;2022-12-18T09:33:52;16.67;;;10.33;;
12145;SDS011;6136;47.032;15.398;2022-12-18T09:36:22;20.10;;;11.60;;
12145;SDS011;6136;47.032;15.398;2022-12-18T09:38:50;18.50;;;10.93;;
12145;SDS011;6136;47.032;15.398;2022-12-18T09:41:25;18.27;;;11.50;;
12145;SDS011;6136;47.032;15.398;2022-12-18T09:44:05;19.97;;;11.50;;
12145;SDS011;6136;47.032;15.398;2022-12-18T09:46:44;18.57;;;10.73;;
12145;SDS011;6136;47.032;15.398;2022-12-18T09:49:15;17.67;;;10.43;;
12145;SDS011;6136;47.032;15.398;2022-12-18T09:51:47;22.53;;;10.53;;
12145;SDS011;6136;47.032;15.398;2022-12-18T09:54:20;21.13;;;11.53;;
12145;SDS011;6136;47.032;15.398;2022-12-18T09:56:52;15.10;;;9.07;;
12145;SDS011;6136;47.032;15.398;2022-12-18T09:59:21;16.53;;;9.43;;
12145;SDS011;6136;47.032;15.398;2022-12-18T10:01:53;18.33;;;10.77;;
12145;SDS011;6136;47.032;15.398;2022-12-18T10:04:21;16.80;;;10.80;;
12145;SDS011;6136;47.032;15.398;2022-12-18T10:06:51;20.10;;;10.87;;
12145;SDS011;6136;47.032;15.398;2022-12-18T10:09:33;19.40;;;11.93;;
12145;SDS011;6136;47.032;15.398;2022-12-18T10:12:12;20.67;;;10.63;;
12145;SDS011;6136;47.032;15.398;2022-12-18T10:14:46;20.73;;;12.03;;
12145;SDS011;6136;47.032;15.398;2022-12-18T10:17:25;19.03;;;9.47;;
12145;SDS011;6136;47.032;15.398;2022-12-18T10:19:59;23.30;;;11.47;;
12145;SDS011;6136;47.032;15.398;2022-12-18T10:22:39;19.00;;;11.20;;
12145;SDS011;6136;47.032;15.398;2022-12-18T10:25:20;17.83;;;10.33;;
12145;SDS011;6136;47.032;15.398;2022-12-18T10:27:52;18.37;;;10.80;;
12145;SDS011;6136;47.032;15.398;2022-12-18T10:30:24;17.83;;;9.90;;
12145;SDS011;6136;47.032;15.398;2022-12-18T10:32:58;17.60;;;10.03;;
12145;SDS011;6136;47.032;15.398;2022-12-18T10:35:28;17.30;;;10.40;;
12145;SDS011;6136;47.032;15.398;2022-12-18T10:38:00;20.03;;;11.40;;
12145;SDS011;6136;47.032;15.398;2022-12-18T10:40:31;17.90;;;10.30;;
12145;SDS011;6136;47.032;15.398;2022-12-18T10:43:03;18.03;;;10.63;;
12145;SDS011;6136;47.032;15.398;2022-12-18T10:45:32;18.00;;;11.30;;
12145;SDS011;6136;47.032;15.398;2022-12-18T10:48:03;19.93;;;11.13;;
12145;SDS011;6136;47.032;15.398;2022-12-18T10:50:32;18.50;;;10.13;;
12145;SDS011;6136;47.032;15.398;2022-12-18T10:53:23;24.00;;;12.20;;
12145;SDS011;6136;47.032;15.398;2022-12-18T10:55:54;21.20;;;11.50;;
12145;SDS011;6136;47.032;15.398;2022-12-18T10:58:28;21.30;;;11.93;;
12145;SDS011;6136;47.032;15.398;2022-12-18T11:01:06;24.80;;;12.63;;
12145;SDS011;6136;47.032;15.398;2022-12-18T11:03:38;25.37;;;13.67;;
12145;SDS011;6136;47.032;15.398;2022-12-18T11:06:10;24.83;;;13.47;;
12145;SDS011;6136;47.032;15.398;2022-12-18T11:08:39;25.67;;;13.20;;
12145;SDS011;6136;47.032;15.398;2022-12-18T11:11:15;23.17;;;13.97;;
12145;SDS011;6136;47.032;15.398;2022-12-18T11:13:54;27.47;;;13.73;;
12145;SDS011;6136;47.032;15.398;2022-12-18T11:16:29;25.27;;;12.93;;
12145;SDS011;6136;47.032;15.398;2022-12-18T11:19:12;22.70;;;13.47;;
12145;SDS011;6136;47.032;15.398;2022-12-18T11:21:48;27.77;;;15.47;;
12145;SDS011;6136;47.032;15.398;2022-12-18T11:24:20;29.07;;;15.80;;
12145;SDS011;6136;47.032;15.398;2022-12-18T11:26:54;26.47;;;15.57;;
12145;SDS011;6136;47.032;15.398;2022-12-18T11:29:28;29.03;;;14.87;;
12145;SDS011;6136;47.032;15.398;2022-12-18T11:32:24;30.13;;;15.47;;
12145;SDS011;6136;47.032;15.398;2022-12-18T11:34:59;25.43;;;15.30;;
12145;SDS011;6136;47.032;15.398;2022-12-18T11:37:37;32.10;;;16.17;;
12145;SDS011;6136;47.032;15.398;2022-12-18T11:40:10;33.20;;;15.50;;
12145;SDS011;6136;47.032;15.398;2022-12-18T11:42:45;29.13;;;16.13;;
12145;SDS011;6136;47.032;15.398;2022-12-18T11:45:24;27.00;;;15.50;;
12145;SDS011;6136;47.032;15.398;2022-12-18T11:47:56;31.63;;;16.67;;
12145;SDS011;6136;47.032;15.398;2022-12-18T11:50:34;31.13;;;16.43;;
12145;SDS011;6136;47.032;15.398;2022-12-18T11:53:12;28.27;;;15.20;;
12145;SDS011;6136;47.032;15.398;2022-12-18T11:55:41;26.80;;;15.33;;
12145;SDS011;6136;47.032;15.398;2022-12-18T11:58:20;30.53;;;15.83;;
12145;SDS011;6136;47.032;15.398;2022-12-18T12:01:01;27.63;;;15.53;;
12145;SDS011;6136;47.032;15.398;2022-12-18T12:06:39;28.90;;;16.70;;
12145;SDS011;6136;47.032;15.398;2022-12-18T12:09:16;28.57;;;16.00;;
12145;SDS011;6136;47.032;15.398;2022-12-18T12:11:55;27.53;;;16.07;;
12145;SDS011;6136;47.032;15.398;2022-12-18T12:14:45;28.27;;;15.03;;
12145;SDS011;6136;47.032;15.398;2022-12-18T12:17:23;33.53;;;17.93;;
12145;SDS011;6136;47.032;15.398;2022-12-18T12:20:04;33.67;;;16.93;;
12145;SDS011;6136;47.032;15.398;2022-12-18T12:22:43;32.00;;;16.13;;
12145;SDS011;6136;47.032;15.398;2022-12-18T12:25:20;29.03;;;15.87;;
12145;SDS011;6136;47.032;15.398;2022-12-18T12:27:58;35.10;;;16.77;;
12145;SDS011;6136;47.032;15.398;2022-12-18T12:30:40;33.33;;;17.67;;
12145;SDS011;6136;47.032;15.398;2022-12-18T12:33:23;32.50;;;16.83;;
12145;SDS011;6136;47.032;15.398;2022-12-18T12:36:03;36.87;;;17.67;;
12145;SDS011;6136;47.032;15.398;2022-12-18T12:38:44;35.70;;;17.33;;
12145;SDS011;6136;47.032;15.398;2022-12-18T12:41:18;35.07;;;16.53;;
12145;SDS011;6136;47.032;15.398;2022-12-18T12:44:13;30.97;;;16.30;;
12145;SDS011;6136;47.032;15.398;2022-12-18T12:46:45;28.00;;;15.67;;
12145;SDS011;6136;47.032;15.398;2022-12-18T12:49:15;31.00;;;15.77;;
12145;SDS011;6136;47.032;15.398;2022-12-18T12:51:49;31.13;;;16.93;;
12145;SDS011;6136;47.032;15.398;2022-12-18T12:54:26;33.17;;;16.27;;
12145;SDS011;6136;47.032;15.398;2022-12-18T12:56:59;30.07;;;16.10;;
12145;SDS011;6136;47.032;15.398;2022-12-18T12:59:37;32.30;;;17.17;;
12145;SDS011;6136;47.032;15.398;2022-12-18T13:02:17;34.50;;;19.03;;
12145;SDS011;6136;47.032;15.398;2022-12-18T13:04:52;36.33;;;17.77;;
12145;SDS011;6136;47.032;15.398;2022-12-18T13:07:26;33.00;;;19.00;;
12145;SDS011;6136;47.032;15.398;2022-12-18T13:10:22;35.10;;;18.17;;
12145;SDS011;6136;47.032;15.398;2022-12-18T13:12:56;34.20;;;18.33;;
12145;SDS011;6136;47.032;15.398;2022-12-18T13:15:26;38.97;;;19.43;;
12145;SDS011;6136;47.032;15.398;2022-12-18T13:18:06;29.23;;;17.27;;
12145;SDS011;6136;47.032;15.398;2022-12-18T13:20:42;32.27;;;17.73;;
12145;SDS011;6136;47.032;15.398;2022-12-18T13:23:33;34.33;;;17.27;;
12145;SDS011;6136;47.032;15.398;2022-12-18T13:29:02;33.20;;;17.37;;
12145;SDS011;6136;47.032;15.398;2022-12-18T13:34:29;37.07;;;18.63;;
12145;SDS011;6136;47.032;15.398;2022-12-18T13:40:00;37.10;;;18.87;;
12145;SDS011;6136;47.032;15.398;2022-12-18T13:42:36;38.43;;;19.60;;
12145;SDS011;6136;47.032;15.398;2022-12-18T13:45:39;36.43;;;17.73;;
12145;SDS011;6136;47.032;15.398;2022-12-18T13:48:33;41.10;;;18.20;;
12145;SDS011;6136;47.032;15.398;2022-12-18T13:51:04;35.07;;;18.27;;
12145;SDS011;6136;47.032;15.398;2022-12-18T13:53:36;37.23;;;19.50;;
12145;SDS011;6136;47.032;15.398;2022-12-18T13:56:07;39.17;;;19.47;;
12145;SDS011;6136;47.032;15.398;2022-12-18T13:58:36;35.93;;;20.03;;
12145;SDS011;6136;47.032;15.398;2022-12-18T14:01:10;38.93;;;18.77;;
12145;SDS011;6136;47.032;15.398;2022-12-18T14:03:49;31.77;;;15.87;;
12145;SDS011;6136;47.032;15.398;2022-12-18T14:06:18;34.47;;;17.03;;
12145;SDS011;6136;47.032;15.398;2022-12-18T14:08:46;35.13;;;16.77;;
12145;SDS011;6136;47.032;15.398;2022-12-18T14:11:18;32.50;;;17.00;;
12145;SDS011;6136;47.032;15.398;2022-12-18T14:13:49;37.93;;;17.07;;
12145;SDS011;6136;47.032;15.398;2022-12-18T14:16:18;40.53;;;18.53;;
12145;SDS011;6136;47.032;15.398;2022-12-18T14:18:48;36.87;;;16.37;;
12145;SDS011;6136;47.032;15.398;2022-12-18T14:21:24;44.07;;;19.80;;
12145;SDS011;6136;47.032;15.398;2022-12-18T14:24:06;35.63;;;18.70;;
12145;SDS011;6136;47.032;15.398;2022-12-18T14:26:45;38.37;;;17.97;;
12145;SDS011;6136;47.032;15.398;2022-12-18T14:29:22;33.93;;;16.50;;
12145;SDS011;6136;47.032;15.398;2022-12-18T14:32:06;33.03;;;17.37;;
12145;SDS011;6136;47.032;15.398;2022-12-18T14:34:43;36.60;;;16.20;;
12145;SDS011;6136;47.032;15.398;2022-12-18T14:37:12;34.47;;;17.47;;
12145;SDS011;6136;47.032;15.398;2022-12-18T14:39:51;31.67;;;17.43;;
12145;SDS011;6136;47.032;15.398;2022-12-18T14:42:21;34.03;;;17.93;;
12145;SDS011;6136;47.032;15.398;2022-12-18T14:44:50;35.53;;;16.97;;
12145;SDS011;6136;47.032;15.398;2022-12-18T14:47:39;37.30;;;17.43;;
12145;SDS011;6136;47.032;15.398;2022-12-18T14:50:12;32.20;;;18.13;;
12145;SDS011;6136;47.032;15.398;2022-12-18T14:52:43;32.97;;;16.10;;
12145;SDS011;6136;47.032;15.398;2022-12-18T14:55:14;32.43;;;15.57;;
12145;SDS011;6136;47.032;15.398;2022-12-18T14:57:44;36.97;;;17.73;;
12145;SDS011;6136;47.032;15.398;2022-12-18T15:00:16;33.50;;;17.23;;
12145;SDS011;6136;47.032;15.398;2022-12-18T15:02:46;33.17;;;17.00;;
12145;SDS011;6136;47.032;15.398;2022-12-18T15:05:20;35.77;;;17.00;;